Time;durP1;ratioP1;P1;durP2;ratioP2;P2;SDS_P1;SDS_P2;PMS_P1;PMS_P2;Temp;Humidity;BMP_temperature;BMP_pressure;BME280_temperature;BME280_humidity;BME280_pressure;Samples;Min_cycle;Max_cycle;Signal;HPM_P1;HPM_P2
2022/06/14 00:03:14;;;;;;;0.77;0.50;;;;;17.40;102307.00;;;;5048823;28;20210;-78
2022/06/14 00:05:41;;;;;;;2.55;0.70;;;;;17.30;102294.00;;;;5046562;28;20204;-78
2022/06/14 00:08:09;;;;;;;1.20;0.70;;;;;17.40;102306.00;;;;5040046;28;20571;-78
2022/06/14 00:10:37;;;;;;;3.92;1.08;;;;;17.30;102302.00;;;;5038696;28;20211;-78
2022/06/14 00:13:05;;;;;;;2.78;0.73;;;;;17.30;102309.00;;;;5043495;28;20224;-78
2022/06/14 00:15:33;;;;;;;1.23;0.60;;;;;17.30;102303.00;;;;5042731;28;20282;-78
2022/06/14 00:18:00;;;;;;;1.73;0.77;;;;;17.30;102305.00;;;;5038672;28;20235;-78
2022/06/14 00:20:29;;;;;;;5.28;0.90;;;;;17.20;102308.00;;;;5040278;28;20201;-78
2022/06/14 00:22:56;;;;;;;3.67;1.10;;;;;17.20;102300.00;;;;5040733;28;20204;-78
2022/06/14 00:25:27;;;;;;;1.58;0.85;;;;;17.20;102308.00;;;;5039100;28;20204;-78
2022/06/14 00:27:55;;;;;;;1.63;0.55;;;;;17.20;102298.00;;;;5040198;28;20208;-78
2022/06/14 00:30:23;;;;;;;3.08;0.95;;;;;17.20;102310.00;;;;5045527;28;20195;-78
2022/06/14 00:32:52;;;;;;;2.47;0.77;;;;;17.10;102305.00;;;;5036843;28;20209;-78
2022/06/14 00:35:19;;;;;;;2.13;0.80;;;;;17.10;102297.00;;;;5038940;28;20210;-78
2022/06/14 00:37:48;;;;;;;1.73;0.70;;;;;17.10;102303.00;;;;5036919;28;20234;-78
2022/06/14 00:40:19;;;;;;;1.85;0.63;;;;;17.10;102307.00;;;;5037362;28;20973;-77
2022/06/14 00:42:46;;;;;;;2.25;0.73;;;;;17.10;102301.00;;;;5037198;28;20733;-77
2022/06/14 00:45:49;;;;;;;3.28;0.75;;;;;16.90;102293.00;;;;5038674;28;20208;-77
2022/06/14 00:48:21;;;;;;;3.63;0.75;;;;;17.00;102295.00;;;;4998210;28;20207;-77
2022/06/14 00:50:54;;;;;;;3.50;1.50;;;;;17.00;102296.00;;;;5039064;28;20210;-77
2022/06/14 00:53:28;;;;;;;1.42;0.60;;;;;17.00;102298.00;;;;5038093;28;20207;-77
2022/06/14 00:56:00;;;;;;;2.72;0.82;;;;;17.00;102296.00;;;;5037791;28;20450;-77
2022/06/14 00:58:32;;;;;;;5.88;0.80;;;;;16.90;102302.00;;;;5039333;28;20227;-77
2022/06/14 01:01:05;;;;;;;2.92;0.98;;;;;16.90;102301.00;;;;5038406;28;20199;-77
2022/06/14 01:03:39;;;;;;;3.17;1.27;;;;;16.90;102300.00;;;;5037996;28;20191;-77
2022/06/14 01:06:10;;;;;;;4.28;0.73;;;;;16.90;102297.00;;;;5039348;28;21231;-77
2022/06/14 01:08:44;;;;;;;1.70;0.60;;;;;16.90;102290.00;;;;5040974;28;20694;-77
2022/06/14 01:11:16;;;;;;;4.15;0.98;;;;;16.90;102287.00;;;;5044183;28;20195;-77
2022/06/14 01:13:44;;;;;;;3.92;0.80;;;;;16.90;102286.00;;;;5046784;28;20195;-77
2022/06/14 01:16:13;;;;;;;1.58;0.75;;;;;16.80;102285.00;;;;5046318;28;20226;-77
2022/06/14 01:18:41;;;;;;;3.30;1.15;;;;;16.80;102283.00;;;;5048709;28;20231;-77
2022/06/14 01:21:08;;;;;;;1.63;0.95;;;;;16.80;102280.00;;;;5043313;28;20215;-77
2022/06/14 01:23:37;;;;;;;0.98;0.60;;;;;16.80;102275.00;;;;5047146;28;20200;-77
2022/06/14 01:26:12;;;;;;;1.67;0.65;;;;;16.70;102271.00;;;;5048044;28;20211;-77
2022/06/14 01:28:43;;;;;;;2.33;1.00;;;;;16.80;102269.00;;;;5047090;28;20231;-77
2022/06/14 01:31:12;;;;;;;3.70;0.75;;;;;16.80;102261.00;;;;5043964;28;20194;-77
2022/06/14 01:33:42;;;;;;;2.28;0.73;;;;;16.70;102258.00;;;;5040341;28;20196;-77
2022/06/14 01:36:13;;;;;;;1.80;0.60;;;;;16.70;102260.00;;;;5041936;28;20576;-77
2022/06/14 01:38:43;;;;;;;2.05;0.75;;;;;16.70;102261.00;;;;5047548;28;20224;-77
2022/06/14 01:41:24;;;;;;;3.90;0.80;;;;;16.60;102256.00;;;;5042469;28;20223;-77
2022/06/14 01:44:09;;;;;;;1.83;0.50;;;;;16.60;102256.00;;;;5044336;28;20227;-77
2022/06/14 01:46:48;;;;;;;2.03;0.50;;;;;16.60;102257.00;;;;5046631;28;20199;-77
2022/06/14 01:52:18;;;;;;;2.28;0.57;;;;;16.50;102257.00;;;;5047049;28;20194;-77
2022/06/14 01:54:56;;;;;;;1.55;0.90;;;;;16.50;102247.00;;;;5047130;28;20196;-77
2022/06/14 01:57:36;;;;;;;1.52;0.80;;;;;16.50;102251.00;;;;5048772;28;20247;-77
2022/06/14 02:00:08;;;;;;;2.63;0.82;;;;;16.50;102251.00;;;;5036689;28;20669;-77
2022/06/14 02:02:42;;;;;;;1.85;0.80;;;;;16.50;102251.00;;;;5045750;28;20202;-77
2022/06/14 02:05:18;;;;;;;2.70;0.70;;;;;16.50;102255.00;;;;5046324;28;20191;-77
2022/06/14 02:07:53;;;;;;;4.43;0.95;;;;;16.40;102245.00;;;;5046493;28;20196;-77
2022/06/14 02:10:30;;;;;;;4.18;1.10;;;;;16.40;102257.00;;;;5029928;28;20200;-77
2022/06/14 02:13:04;;;;;;;2.45;1.00;;;;;16.40;102254.00;;;;5043533;28;20199;-77
2022/06/14 02:15:37;;;;;;;3.53;1.02;;;;;16.40;102259.00;;;;5049216;28;20192;-78
2022/06/14 02:18:10;;;;;;;1.08;0.70;;;;;16.40;102256.00;;;;5045850;28;20223;-78
2022/06/14 02:20:43;;;;;;;3.20;1.45;;;;;16.40;102253.00;;;;5049156;28;20192;-78
2022/06/14 02:23:11;;;;;;;2.10;0.88;;;;;16.40;102251.00;;;;5047527;28;20676;-77
2022/06/14 02:25:47;;;;;;;4.47;1.08;;;;;16.30;102254.00;;;;5049011;28;20278;-76
2022/06/14 02:28:18;;;;;;;4.50;1.00;;;;;16.30;102245.00;;;;5049176;28;20199;-76
2022/06/14 02:31:03;;;;;;;2.00;0.90;;;;;16.20;102248.00;;;;5048460;28;20200;-77
2022/06/14 02:33:37;;;;;;;3.00;1.27;;;;;16.20;102246.00;;;;4996027;28;20204;-77
2022/06/14 02:36:08;;;;;;;2.78;1.00;;;;;16.20;102248.00;;;;4980964;28;20631;-77
2022/06/14 02:38:42;;;;;;;4.88;0.90;;;;;16.20;102249.00;;;;4986219;28;20229;-77
2022/06/14 02:41:19;;;;;;;3.83;1.02;;;;;16.10;102241.00;;;;4987316;28;20198;-77
2022/06/14 02:43:51;;;;;;;1.55;0.65;;;;;16.20;102239.00;;;;4987445;28;20240;-77
2022/06/14 02:46:23;;;;;;;2.08;0.88;;;;;16.10;102236.00;;;;4987139;28;20214;-77
2022/06/14 02:48:56;;;;;;;2.00;0.80;;;;;16.10;102237.00;;;;4986133;28;20201;-77
2022/06/14 02:51:29;;;;;;;3.47;1.05;;;;;16.10;102234.00;;;;4987289;28;20193;-77
2022/06/14 02:54:00;;;;;;;1.05;0.50;;;;;16.10;102236.00;;;;4986783;28;20201;-77
2022/06/14 02:56:37;;;;;;;2.30;0.90;;;;;16.00;102227.00;;;;4986054;28;20214;-77
2022/06/14 02:59:10;;;;;;;1.40;0.80;;;;;16.00;102232.00;;;;4979371;28;20271;-77
2022/06/14 03:01:45;;;;;;;2.28;0.95;;;;;16.00;102234.00;;;;4985813;28;20209;-77
2022/06/14 03:04:17;;;;;;;1.85;0.88;;;;;16.00;102225.00;;;;5001077;28;20203;-77
2022/06/14 03:06:51;;;;;;;1.58;0.75;;;;;16.00;102225.00;;;;5028748;28;20207;-77
2022/06/14 03:09:23;;;;;;;1.83;0.90;;;;;16.00;102232.00;;;;5011412;28;20728;-77
2022/06/14 03:12:01;;;;;;;2.22;0.88;;;;;15.90;102224.00;;;;5027424;28;20741;-77
2022/06/14 03:14:39;;;;;;;1.48;0.90;;;;;15.90;102224.00;;;;5027916;28;20200;-77
2022/06/14 03:17:18;;;;;;;1.25;0.80;;;;;15.90;102229.00;;;;5020522;28;20212;-77
2022/06/14 03:19:52;;;;;;;1.77;0.80;;;;;15.90;102227.00;;;;5023101;28;20220;-77
2022/06/14 03:22:27;;;;;;;2.00;0.85;;;;;15.90;102219.00;;;;5025023;28;20226;-77
2022/06/14 03:24:59;;;;;;;3.45;0.93;;;;;15.90;102210.00;;;;5020289;28;20197;-77
2022/06/14 03:27:34;;;;;;;2.58;0.73;;;;;15.80;102213.00;;;;5014664;28;20200;-77
2022/06/14 03:30:05;;;;;;;1.88;0.75;;;;;15.90;102210.00;;;;5026652;28;20212;-76
2022/06/14 03:32:39;;;;;;;3.72;1.10;;;;;15.90;102215.00;;;;5023667;28;20192;-76
2022/06/14 03:35:10;;;;;;;2.72;1.33;;;;;15.90;102215.00;;;;5024806;28;20974;-77
2022/06/14 03:37:38;;;;;;;1.55;0.80;;;;;15.90;102215.00;;;;5028527;28;20200;-77
2022/06/14 03:40:12;;;;;;;2.25;0.80;;;;;15.80;102210.00;;;;5027801;28;20196;-77
2022/06/14 03:42:41;;;;;;;1.52;0.80;;;;;15.80;102216.00;;;;5039265;28;20238;-77
2022/06/14 03:45:13;;;;;;;1.15;0.47;;;;;15.80;102215.00;;;;5047612;28;20207;-77
2022/06/14 03:47:40;;;;;;;1.92;0.70;;;;;15.80;102220.00;;;;5045246;28;20210;-77
2022/06/14 03:50:11;;;;;;;3.08;0.70;;;;;15.80;102213.00;;;;5041261;28;20199;-77
2022/06/14 03:52:56;;;;;;;3.78;1.33;;;;;15.70;102219.00;;;;5047888;28;20195;-77
2022/06/14 03:55:36;;;;;;;3.15;0.70;;;;;15.70;102220.00;;;;5047434;28;20200;-77
2022/06/14 03:58:25;;;;;;;2.30;1.20;;;;;15.70;102229.00;;;;5037393;28;20235;-77
2022/06/14 04:00:55;;;;;;;2.22;0.98;;;;;15.80;102222.00;;;;5041167;28;20282;-77
2022/06/14 04:03:44;;;;;;;1.80;0.73;;;;;15.70;102221.00;;;;5048218;28;20192;-77
2022/06/14 04:06:19;;;;;;;2.65;0.75;;;;;15.80;102220.00;;;;5035980;28;20196;-77
2022/06/14 04:08:56;;;;;;;1.42;0.80;;;;;15.80;102214.00;;;;5046725;28;20661;-77
2022/06/14 04:11:33;;;;;;;4.13;0.60;;;;;15.70;102223.00;;;;5048284;28;20684;-77
2022/06/14 04:14:20;;;;;;;2.80;0.98;;;;;15.70;102220.00;;;;5047321;28;20206;-78
2022/06/14 04:16:54;;;;;;;1.45;0.70;;;;;15.80;102226.00;;;;5050750;28;20222;-78
2022/06/14 04:19:32;;;;;;;5.15;1.05;;;;;15.80;102223.00;;;;5050595;28;20700;-77
2022/06/14 04:22:11;;;;;;;4.35;0.88;;;;;15.80;102218.00;;;;5043293;28;20203;-77
2022/06/14 04:24:43;;;;;;;4.50;0.98;;;;;15.80;102223.00;;;;5045382;28;20207;-77
2022/06/14 04:27:15;;;;;;;1.67;0.73;;;;;15.80;102221.00;;;;5051502;28;20649;-77
2022/06/14 04:29:49;;;;;;;3.65;1.10;;;;;15.80;102233.00;;;;5051708;28;20196;-77
2022/06/14 04:32:23;;;;;;;1.80;0.68;;;;;15.90;102230.00;;;;5051485;28;20704;-77
2022/06/14 04:34:54;;;;;;;2.22;0.80;;;;;15.90;102235.00;;;;5048903;28;20204;-77
2022/06/14 04:37:27;;;;;;;3.33;1.10;;;;;15.90;102233.00;;;;5049402;28;20684;-77
2022/06/14 04:39:59;;;;;;;2.95;1.10;;;;;16.00;102239.00;;;;5046759;28;20227;-77
2022/06/14 04:42:34;;;;;;;1.75;0.88;;;;;16.00;102236.00;;;;5050560;28;20254;-77
2022/06/14 04:45:08;;;;;;;3.85;1.35;;;;;16.00;102237.00;;;;5049214;28;20198;-77
2022/06/14 04:47:41;;;;;;;2.65;0.90;;;;;16.10;102237.00;;;;5047419;28;20202;-78
2022/06/14 04:50:13;;;;;;;3.25;1.30;;;;;16.10;102251.00;;;;5046082;28;20196;-77
2022/06/14 04:52:46;;;;;;;4.40;1.63;;;;;16.20;102248.00;;;;5041769;28;20203;-77
2022/06/14 04:55:20;;;;;;;3.15;1.50;;;;;16.20;102243.00;;;;5051562;28;20188;-77
2022/06/14 04:57:51;;;;;;;2.78;1.50;;;;;16.30;102250.00;;;;5047361;28;20211;-77
2022/06/14 05:00:22;;;;;;;3.10;1.35;;;;;16.40;102246.00;;;;5049826;28;20199;-77
2022/06/14 05:02:54;;;;;;;2.95;1.20;;;;;16.40;102254.00;;;;5050229;28;20198;-78
2022/06/14 05:05:27;;;;;;;3.20;1.45;;;;;16.50;102255.00;;;;5050704;28;20227;-77
2022/06/14 05:08:00;;;;;;;2.55;1.25;;;;;16.60;102254.00;;;;5050655;28;20290;-78
2022/06/14 05:10:31;;;;;;;2.22;1.45;;;;;16.70;102260.00;;;;5050453;28;20221;-78
2022/06/14 05:13:06;;;;;;;3.00;0.90;;;;;16.70;102255.00;;;;5049229;28;20207;-78
2022/06/14 05:15:38;;;;;;;1.30;0.70;;;;;16.80;102250.00;;;;5048233;28;20665;-78
2022/06/14 05:18:17;;;;;;;4.03;1.10;;;;;16.90;102252.00;;;;5049218;28;20610;-77
2022/06/14 05:20:49;;;;;;;2.08;0.80;;;;;17.00;102259.00;;;;5050806;28;20199;-78
2022/06/14 05:23:24;;;;;;;6.03;1.80;;;;;17.10;102252.00;;;;5051184;28;20569;-78
2022/06/14 05:26:04;;;;;;;2.75;1.08;;;;;17.20;102257.00;;;;5047636;28;20203;-78
2022/06/14 05:28:37;;;;;;;3.60;1.63;;;;;17.30;102265.00;;;;5048940;28;20204;-77
2022/06/14 05:31:14;;;;;;;4.05;1.42;;;;;17.40;102261.00;;;;5035272;28;20665;-77
2022/06/14 05:33:51;;;;;;;3.83;1.05;;;;;17.50;102265.00;;;;5049113;28;20207;-77
2022/06/14 05:36:23;;;;;;;4.68;1.90;;;;;17.70;102263.00;;;;5048746;28;20199;-77
2022/06/14 05:38:57;;;;;;;2.90;1.25;;;;;17.70;102269.00;;;;5047765;28;20228;-78
2022/06/14 05:41:32;;;;;;;5.43;1.70;;;;;17.80;102270.00;;;;5045060;28;20203;-78
2022/06/14 05:44:06;;;;;;;4.32;2.10;;;;;18.00;102268.00;;;;5042619;28;20199;-78
2022/06/14 05:46:38;;;;;;;4.82;1.75;;;;;18.10;102263.00;;;;5048463;28;20195;-78
2022/06/14 05:49:08;;;;;;;5.72;2.03;;;;;18.20;102262.00;;;;5037863;28;20208;-78
2022/06/14 05:51:40;;;;;;;5.60;1.52;;;;;18.30;102261.00;;;;5029486;28;20539;-78
2022/06/14 05:54:16;;;;;;;3.50;1.77;;;;;18.40;102263.00;;;;5046123;28;20199;-77
2022/06/14 05:56:49;;;;;;;4.03;1.98;;;;;18.50;102263.00;;;;5046968;28;20210;-77
2022/06/14 05:59:24;;;;;;;4.88;1.88;;;;;18.70;102264.00;;;;5049590;28;20244;-77
2022/06/14 06:01:58;;;;;;;3.83;1.90;;;;;18.80;102261.00;;;;5047323;28;20201;-78
2022/06/14 06:04:32;;;;;;;6.60;2.60;;;;;18.90;102267.00;;;;5048998;28;20194;-78
2022/06/14 06:07:05;;;;;;;2.58;1.75;;;;;19.00;102265.00;;;;5036628;28;20191;-78
2022/06/14 06:09:38;;;;;;;4.28;1.52;;;;;19.20;102265.00;;;;5044221;28;22345;-78
2022/06/14 06:12:11;;;;;;;3.17;1.73;;;;;19.30;102268.00;;;;5036115;28;20751;-79
2022/06/14 06:14:44;;;;;;;7.32;1.88;;;;;19.40;102271.00;;;;5048879;28;20195;-79
2022/06/14 06:17:18;;;;;;;3.08;1.38;;;;;19.50;102267.00;;;;5045747;28;20618;-78
2022/06/14 06:19:53;;;;;;;4.82;1.42;;;;;19.70;102266.00;;;;5046899;28;20316;-77
2022/06/14 06:22:24;;;;;;;3.15;1.25;;;;;19.80;102261.00;;;;5044306;28;20216;-77
2022/06/14 06:24:57;;;;;;;3.33;1.50;;;;;19.90;102268.00;;;;5028618;28;20199;-77
2022/06/14 06:27:28;;;;;;;3.38;1.67;;;;;20.10;102270.00;;;;5040596;28;20684;-77
2022/06/14 06:30:00;;;;;;;3.78;1.70;;;;;20.20;102269.00;;;;5048392;28;20195;-78
2022/06/14 06:32:32;;;;;;;3.60;1.38;;;;;20.30;102272.00;;;;5048845;28;20206;-77
2022/06/14 06:35:03;;;;;;;2.80;1.48;;;;;20.40;102274.00;;;;5048580;28;20192;-77
2022/06/14 06:37:36;;;;;;;3.70;1.80;;;;;20.50;102275.00;;;;5037745;28;20191;-77
2022/06/14 06:40:08;;;;;;;2.92;1.17;;;;;20.60;102272.00;;;;5039929;28;20224;-78
2022/06/14 06:42:42;;;;;;;2.85;1.30;;;;;20.70;102276.00;;;;5047568;28;20615;-77
2022/06/14 06:45:14;;;;;;;3.42;1.63;;;;;20.80;102278.00;;;;5028739;28;20208;-78
2022/06/14 06:47:49;;;;;;;5.45;1.75;;;;;20.80;102272.00;;;;5045624;28;20203;-78
2022/06/14 06:50:21;;;;;;;3.35;1.35;;;;;21.00;102276.00;;;;5048286;28;20199;-78
2022/06/14 06:53:02;;;;;;;3.60;1.02;;;;;21.00;102271.00;;;;5047601;28;21036;-78
2022/06/14 06:55:40;;;;;;;2.17;1.27;;;;;21.20;102282.00;;;;5048573;28;20614;-78
2022/06/14 06:58:12;;;;;;;6.30;1.60;;;;;21.30;102279.00;;;;5032666;28;20230;-78
2022/06/14 07:00:42;;;;;;;2.63;1.60;;;;;21.50;102277.00;;;;5034779;28;20223;-78
2022/06/14 07:03:21;;;;;;;1.65;0.80;;;;;21.60;102277.00;;;;5047600;28;20188;-78
2022/06/14 07:05:51;;;;;;;2.10;0.90;;;;;21.70;102279.00;;;;5047832;28;20203;-78
2022/06/14 07:08:26;;;;;;;2.80;0.68;;;;;21.80;102285.00;;;;5048015;28;20572;-78
2022/06/14 07:10:56;;;;;;;2.17;0.57;;;;;22.00;102283.00;;;;5048759;28;20207;-78
2022/06/14 07:13:28;;;;;;;1.42;0.65;;;;;22.10;102280.00;;;;5047502;28;20195;-78
2022/06/14 07:16:05;;;;;;;2.95;0.70;;;;;22.20;102282.00;;;;5047184;28;20192;-78
2022/06/14 07:18:40;;;;;;;1.88;0.70;;;;;22.40;102287.00;;;;5047929;28;20310;-78
2022/06/14 07:21:10;;;;;;;1.67;0.77;;;;;22.50;102290.00;;;;5047518;28;20210;-78
2022/06/14 07:23:44;;;;;;;2.78;0.95;;;;;22.50;102286.00;;;;5048782;28;20567;-78
2022/06/14 07:26:19;;;;;;;1.45;0.60;;;;;22.50;102284.00;;;;5047724;28;20201;-78
2022/06/14 07:28:56;;;;;;;1.42;0.45;;;;;22.50;102287.00;;;;5047618;28;20199;-78
2022/06/14 07:31:29;;;;;;;2.30;0.95;;;;;22.60;102282.00;;;;5047028;28;20218;-78
2022/06/14 07:34:00;;;;;;;1.90;0.60;;;;;22.70;102289.00;;;;5047760;28;20734;-78
2022/06/14 07:36:37;;;;;;;2.60;0.77;;;;;22.80;102287.00;;;;5048013;28;20188;-78
2022/06/14 07:39:11;;;;;;;1.67;0.93;;;;;22.90;102289.00;;;;5047749;28;20222;-78
2022/06/14 07:41:44;;;;;;;0.80;0.38;;;;;23.10;102284.00;;;;5048097;28;20200;-78
2022/06/14 07:44:19;;;;;;;1.45;0.60;;;;;23.10;102285.00;;;;5047521;28;20562;-78
2022/06/14 07:46:56;;;;;;;0.90;0.52;;;;;23.20;102280.00;;;;5045951;28;20203;-78
2022/06/14 07:49:31;;;;;;;1.98;0.40;;;;;23.30;102282.00;;;;5050472;28;20202;-78
2022/06/14 07:52:05;;;;;;;2.03;0.52;;;;;23.40;102278.00;;;;5051121;28;20264;-78
2022/06/14 07:54:37;;;;;;;2.75;0.90;;;;;23.50;102284.00;;;;5051219;28;20210;-78
2022/06/14 07:57:12;;;;;;;1.48;0.52;;;;;23.60;102278.00;;;;5050311;28;20313;-78
2022/06/14 07:59:44;;;;;;;1.77;0.47;;;;;23.80;102288.00;;;;5050612;28;20223;-78
2022/06/14 08:02:20;;;;;;;1.85;0.52;;;;;23.80;102279.00;;;;5050675;28;20187;-77
2022/06/14 08:04:54;;;;;;;1.95;0.60;;;;;23.80;102289.00;;;;5042304;28;20200;-77
2022/06/14 08:07:22;;;;;;;2.40;0.98;;;;;23.90;102291.00;;;;5043703;28;20211;-76
2022/06/14 08:09:56;;;;;;;2.85;0.73;;;;;23.90;102284.00;;;;5050891;28;20216;-77
2022/06/14 08:12:33;;;;;;;1.40;0.63;;;;;23.90;102288.00;;;;5051505;28;20199;-77
2022/06/14 08:15:05;;;;;;;1.33;0.47;;;;;24.00;102287.00;;;;5051060;28;20187;-77
2022/06/14 08:17:38;;;;;;;2.65;0.55;;;;;24.00;102283.00;;;;5051048;28;20223;-77
2022/06/14 08:20:12;;;;;;;1.77;0.60;;;;;23.90;102282.00;;;;5050043;28;20215;-77
2022/06/14 08:22:45;;;;;;;1.65;0.50;;;;;24.00;102280.00;;;;5041976;28;20672;-77
2022/06/14 08:25:17;;;;;;;0.82;0.55;;;;;24.00;102277.00;;;;5051320;28;20207;-77
2022/06/14 08:27:49;;;;;;;1.05;0.57;;;;;24.00;102285.00;;;;5050670;28;20206;-77
2022/06/14 08:30:21;;;;;;;1.83;0.70;;;;;24.00;102284.00;;;;5051075;28;20196;-77
2022/06/14 08:32:55;;;;;;;1.30;0.45;;;;;23.90;102285.00;;;;5050616;28;20204;-77
2022/06/14 08:35:28;;;;;;;1.38;0.60;;;;;23.90;102280.00;;;;5050958;28;20269;-77
2022/06/14 08:37:59;;;;;;;2.53;0.60;;;;;23.90;102279.00;;;;5048091;28;20199;-77
2022/06/14 08:40:40;;;;;;;2.65;0.98;;;;;23.80;102278.00;;;;5031137;28;20224;-76
2022/06/14 08:43:10;;;;;;;1.77;0.70;;;;;23.90;102287.00;;;;5040491;28;20235;-77
2022/06/14 08:45:41;;;;;;;1.85;0.63;;;;;23.90;102276.00;;;;5050483;28;20195;-77
2022/06/14 08:48:20;;;;;;;2.58;0.90;;;;;24.00;102276.00;;;;5050126;28;20218;-76
2022/06/14 08:51:12;;;;;;;1.17;0.80;;;;;24.10;102268.00;;;;5050305;28;20318;-76
2022/06/14 08:54:08;;;;;;;1.50;0.70;;;;;24.20;102262.00;;;;5050207;28;20715;-76
2022/06/14 08:57:18;;;;;;;1.90;0.60;;;;;24.30;102261.00;;;;5040330;28;20281;-76
2022/06/14 09:00:07;;;;;;;2.30;0.55;;;;;24.40;102265.00;;;;4968785;28;20410;-77
2022/06/14 09:03:18;;;;;;;3.50;0.60;;;;;24.40;102264.00;;;;4950000;29;20684;-78
2022/06/14 09:06:03;;;;;;;0.93;0.47;;;;;24.40;102268.00;;;;4997014;28;20199;-78
2022/06/14 09:09:07;;;;;;;1.55;0.77;;;;;24.30;102264.00;;;;5044365;28;20206;-77
2022/06/14 09:12:12;;;;;;;2.72;0.85;;;;;24.30;102259.00;;;;5050777;28;20568;-77
2022/06/14 09:15:16;;;;;;;0.88;0.55;;;;;24.30;102257.00;;;;5005101;28;20204;-77
2022/06/14 09:18:00;;;;;;;1.80;0.60;;;;;24.30;102263.00;;;;5043928;28;20215;-78
2022/06/14 09:20:38;;;;;;;1.73;0.65;;;;;24.30;102263.00;;;;5049736;28;20231;-77
2022/06/14 09:23:20;;;;;;;1.73;0.60;;;;;24.20;102260.00;;;;5050149;28;20202;-77
2022/06/14 09:26:17;;;;;;;1.23;0.70;;;;;24.20;102257.00;;;;5049609;28;20196;-78
2022/06/14 09:29:15;;;;;;;2.40;0.85;;;;;24.30;102245.00;;;;5046607;28;20241;-77
2022/06/14 09:31:59;;;;;;;1.25;0.95;;;;;24.60;102244.00;;;;5040668;28;20196;-78
2022/06/14 09:34:55;;;;;;;1.35;0.73;;;;;24.70;102242.00;;;;5049762;28;20196;-78
2022/06/14 09:37:48;;;;;;;1.58;0.57;;;;;25.00;102247.00;;;;5046761;28;20199;-77
2022/06/14 09:40:39;;;;;;;2.13;0.52;;;;;25.20;102251.00;;;;5049681;28;20237;-78
2022/06/14 09:43:39;;;;;;;1.85;0.80;;;;;25.40;102237.00;;;;5043689;28;20223;-78
2022/06/14 09:46:45;;;;;;;3.85;0.80;;;;;25.60;102244.00;;;;5029820;28;20216;-77
2022/06/14 09:49:36;;;;;;;0.70;0.50;;;;;25.80;102248.00;;;;5049023;28;20203;-77
2022/06/14 09:52:34;;;;;;;0.73;0.40;;;;;25.80;102243.00;;;;5048471;28;20196;-78
2022/06/14 09:55:36;;;;;;;2.83;0.47;;;;;25.90;102239.00;;;;5048328;28;20199;-78
2022/06/14 09:58:47;;;;;;;0.82;0.55;;;;;25.90;102242.00;;;;5038253;28;20249;-77
2022/06/14 10:01:22;;;;;;;2.78;0.75;;;;;25.90;102232.00;;;;5049108;28;20226;-78
2022/06/14 10:04:13;;;;;;;6.03;1.10;;;;;25.90;102234.00;;;;5039581;28;20568;-77
2022/06/14 10:07:07;;;;;;;1.88;0.60;;;;;25.90;102236.00;;;;5029186;28;20208;-78
2022/06/14 10:10:01;;;;;;;2.00;0.80;;;;;25.90;102230.00;;;;5049256;28;20202;-77
2022/06/14 10:12:50;;;;;;;2.47;0.80;;;;;26.00;102233.00;;;;5047514;28;20202;-77
2022/06/14 10:15:28;;;;;;;4.88;0.43;;;;;26.10;102231.00;;;;5046833;28;20672;-77
2022/06/14 10:18:19;;;;;;;1.40;0.50;;;;;26.00;102227.00;;;;5047740;28;20210;-77
2022/06/14 10:20:58;;;;;;;1.02;0.52;;;;;26.10;102225.00;;;;5040474;28;20220;-77
2022/06/14 10:23:42;;;;;;;1.42;0.57;;;;;26.10;102225.00;;;;5042009;28;20203;-77
2022/06/14 10:29:36;;;;;;;1.02;0.70;;;;;26.20;102221.00;;;;5048667;28;20214;-77
2022/06/14 10:32:43;;;;;;;1.38;0.70;;;;;26.20;102221.00;;;;5048099;28;20688;-77
2022/06/14 10:35:17;;;;;;;0.85;0.50;;;;;26.20;102226.00;;;;5047376;28;20200;-78
2022/06/14 10:38:26;;;;;;;2.05;0.90;;;;;26.10;102223.00;;;;5047724;28;20198;-77
2022/06/14 10:41:00;;;;;;;0.70;0.32;;;;;26.20;102220.00;;;;5048146;28;20231;-78
2022/06/14 10:43:36;;;;;;;2.88;0.90;;;;;26.10;102215.00;;;;5047824;28;20729;-77
2022/06/14 10:46:09;;;;;;;1.00;0.52;;;;;26.10;102212.00;;;;5047516;28;20206;-77
2022/06/14 10:49:06;;;;;;;0.80;0.40;;;;;26.00;102207.00;;;;5048589;28;20198;-77
2022/06/14 10:51:51;;;;;;;1.65;0.50;;;;;26.00;102210.00;;;;5048542;28;20199;-77
2022/06/14 10:54:25;;;;;;;1.65;0.60;;;;;26.10;102202.00;;;;5043423;28;20204;-77
2022/06/14 10:57:11;;;;;;;2.35;0.70;;;;;26.00;102198.00;;;;5047032;28;20199;-77
2022/06/14 11:00:07;;;;;;;1.50;0.80;;;;;26.10;102192.00;;;;5048539;28;20210;-77
2022/06/14 11:03:16;;;;;;;1.10;0.50;;;;;26.20;102193.00;;;;5027590;28;20582;-77
2022/06/14 11:06:16;;;;;;;1.63;0.73;;;;;26.40;102195.00;;;;4995775;28;20257;-77
2022/06/14 11:08:57;;;;;;;1.20;0.70;;;;;26.60;102191.00;;;;5047396;28;20194;-77
2022/06/14 11:11:45;;;;;;;2.45;0.65;;;;;26.70;102192.00;;;;5047788;28;20219;-77
2022/06/14 11:14:20;;;;;;;1.00;0.65;;;;;26.90;102190.00;;;;5047539;28;20192;-77
2022/06/14 11:17:07;;;;;;;1.17;0.82;;;;;26.90;102187.00;;;;5047136;28;20218;-77
2022/06/14 11:19:55;;;;;;;1.83;0.63;;;;;27.00;102180.00;;;;5047440;28;20672;-77
2022/06/14 11:22:35;;;;;;;2.40;0.68;;;;;27.20;102177.00;;;;5047485;28;20573;-77
2022/06/14 11:25:12;;;;;;;1.95;0.68;;;;;27.40;102171.00;;;;5050586;28;20187;-77
2022/06/14 11:27:50;;;;;;;1.48;0.82;;;;;27.50;102170.00;;;;5051824;28;20195;-77
2022/06/14 11:30:24;;;;;;;0.80;0.50;;;;;27.60;102176.00;;;;5035506;28;20203;-77
2022/06/14 11:32:59;;;;;;;1.67;0.88;;;;;27.80;102172.00;;;;5051927;28;20206;-77
2022/06/14 11:35:49;;;;;;;1.10;0.63;;;;;27.80;102179.00;;;;5051615;28;20195;-77
2022/06/14 11:39:05;;;;;;;1.58;0.70;;;;;27.90;102172.00;;;;5052024;28;20199;-77
2022/06/14 11:41:38;;;;;;;2.65;0.73;;;;;28.00;102169.00;;;;4970559;28;20237;-77
2022/06/14 11:44:22;;;;;;;1.55;0.70;;;;;28.00;102169.00;;;;5035556;28;20191;-76
2022/06/14 11:46:59;;;;;;;5.65;1.15;;;;;27.90;102175.00;;;;5051568;28;20200;-77
2022/06/14 11:49:33;;;;;;;1.65;0.70;;;;;27.90;102165.00;;;;5032067;28;20668;-76
2022/06/14 11:52:16;;;;;;;0.68;0.50;;;;;27.80;102164.00;;;;5033068;28;20287;-77
2022/06/14 11:54:49;;;;;;;1.08;0.43;;;;;27.80;102172.00;;;;5051753;28;20191;-76
2022/06/14 11:57:26;;;;;;;0.75;0.35;;;;;27.70;102170.00;;;;5052591;28;20196;-77
2022/06/14 12:00:23;;;;;;;1.08;0.60;;;;;27.60;102154.00;;;;5051103;28;20203;-76
2022/06/14 12:03:12;;;;;;;1.90;0.85;;;;;27.50;102158.00;;;;5025016;28;20254;-77
2022/06/14 12:05:48;;;;;;;2.20;0.80;;;;;27.50;102157.00;;;;5051156;28;20192;-78
2022/06/14 12:08:38;;;;;;;1.80;0.70;;;;;27.40;102154.00;;;;5050669;28;20214;-78
2022/06/14 12:11:16;;;;;;;1.30;0.60;;;;;27.50;102158.00;;;;5051111;28;20350;-78
2022/06/14 12:14:15;;;;;;;1.42;0.77;;;;;27.50;102148.00;;;;5051129;28;20183;-78
2022/06/14 12:16:45;;;;;;;1.65;0.80;;;;;27.60;102141.00;;;;5024618;28;20227;-78
2022/06/14 12:19:17;;;;;;;1.50;0.70;;;;;27.60;102147.00;;;;5050384;28;20210;-78
2022/06/14 12:21:53;;;;;;;1.65;0.82;;;;;27.60;102144.00;;;;5051260;28;20239;-78
2022/06/14 12:26:34;;;;;;;2.45;0.95;;;;;27.70;102137.00;;;;5031363;28;20692;-78
2022/06/14 12:27:10;;;;;;;1.55;0.77;;;;;27.70;102141.00;;;;5041517;28;20253;-77
2022/06/14 12:29:44;;;;;;;2.05;1.00;;;;;27.60;102141.00;;;;5050995;28;20212;-78
2022/06/14 12:32:18;;;;;;;3.53;0.93;;;;;27.60;102137.00;;;;5050447;28;20200;-77
2022/06/14 12:34:48;;;;;;;1.40;0.70;;;;;27.60;102136.00;;;;5050183;28;20199;-77
2022/06/14 12:37:33;;;;;;;1.08;0.80;;;;;27.40;102126.00;;;;5041522;28;20215;-77
2022/06/14 12:40:06;;;;;;;2.25;1.05;;;;;27.50;102127.00;;;;5049853;28;20196;-76
2022/06/14 12:42:40;;;;;;;2.53;0.70;;;;;27.50;102126.00;;;;5050715;28;20235;-78
2022/06/14 12:45:13;;;;;;;1.67;0.80;;;;;27.50;102119.00;;;;5050318;28;20206;-76
2022/06/14 12:47:50;;;;;;;0.88;0.55;;;;;27.40;102118.00;;;;5050192;28;20196;-77
2022/06/14 12:50:23;;;;;;;3.28;1.00;;;;;27.50;102119.00;;;;5051227;28;20202;-78
2022/06/14 12:52:54;;;;;;;1.42;0.52;;;;;27.50;102115.00;;;;5049209;28;20195;-78
2022/06/14 12:55:26;;;;;;;1.95;0.75;;;;;27.50;102112.00;;;;5031452;28;20200;-77
2022/06/14 12:58:21;;;;;;;1.52;0.93;;;;;27.50;102110.00;;;;5039372;28;20204;-78
2022/06/14 13:00:55;;;;;;;1.77;0.70;;;;;27.50;102113.00;;;;5049834;28;20692;-77
2022/06/14 13:03:32;;;;;;;2.40;0.95;;;;;27.50;102111.00;;;;5050818;28;20200;-78
2022/06/14 13:06:12;;;;;;;2.42;0.80;;;;;27.60;102110.00;;;;5049378;28;20554;-78